Crescent, Oklahoma
Current Conditions -  °F | °C
As of 3:53 AM on Saturday 22 Nov 2014 (Local Time) from KGOK Reporting Station
Overcast Overcast  
Wind Chill: 17°   Ceiling: 700
Heat Index: 17°   Visibility: 9mi
Dew Point: 15°   Wind: 10mph
Humidity: 90%   Direction: 170°S
Pressure: 30.01"   Gusts: NA
Location:  35.95°N, 97.59°W
Report Text: KGOK 220953Z AUTO 17009KT 9SM OVC007 17/15 A3001 RMK AO2 SLP160 T01670150
Loading
Personal Weather Stations






























Interactive Weather Map New forecast layout! Learn more

10-Day Weather Forecast

Advertisements
Track Severe Weather on mobile